N1221Z KBHM-KEKY
Flight info
| Callsign | N1221Z |
|---|---|
| Flight time | 0h 8m |
| Altitude | VFR |
| Route | |
| Aircraft | AS50/L-DOV/C |
Departure
| Time | 2026-04-28 04:21 |
|---|---|
| Airport | Birmingham-Shuttlesworth International Airport (KBHM) |
Arrival
| Time | 2026-04-28 04:30 |
|---|---|
| Airport | Bessemer Airport (KEKY) |
| Time | Latitude | Longitude | Altitude | Speed | Heading |
|---|---|---|---|---|---|
| 2026-04-28 04:17 | 33.56153 | -86.75613 | 618 ft | 0 kts | 191° |
| 2026-04-28 04:17 | 33.56158 | -86.75608 | 627 ft | 2 kts | 194° |
| 2026-04-28 04:18 | 33.56166 | -86.75603 | 636 ft | 1 kts | 187° |
| 2026-04-28 04:18 | 33.56173 | -86.75599 | 635 ft | 1 kts | 186° |
| 2026-04-28 04:18 | 33.56172 | -86.75598 | 636 ft | 2 kts | 187° |
| 2026-04-28 04:18 | 33.56179 | -86.75601 | 636 ft | 1 kts | 187° |
| 2026-04-28 04:19 | 33.56186 | -86.75609 | 634 ft | 3 kts | 187° |
| 2026-04-28 04:19 | 33.56193 | -86.75607 | 632 ft | 1 kts | 185° |
| 2026-04-28 04:19 | 33.56199 | -86.75599 | 632 ft | 1 kts | 186° |
| 2026-04-28 04:19 | 33.56203 | -86.75589 | 633 ft | 1 kts | 186° |
| 2026-04-28 04:20 | 33.56209 | -86.75580 | 634 ft | 1 kts | 186° |
| 2026-04-28 04:20 | 33.56186 | -86.75574 | 733 ft | 24 kts | 170° |
| 2026-04-28 04:20 | 33.55822 | -86.75625 | 1007 ft | 78 kts | 185° |
| 2026-04-28 04:20 | 33.55235 | -86.75889 | 1067 ft | 97 kts | 203° |
| 2026-04-28 04:21 | 33.54634 | -86.76295 | 1072 ft | 101 kts | 195° |
| 2026-04-28 04:21 | 33.53982 | -86.76615 | 1184 ft | 106 kts | 193° |
| 2026-04-28 04:21 | 33.53289 | -86.76927 | 1363 ft | 112 kts | 208° |
| 2026-04-28 04:21 | 33.52625 | -86.77441 | 1401 ft | 115 kts | 204° |
| 2026-04-28 04:22 | 33.51934 | -86.77919 | 1382 ft | 117 kts | 204° |
| 2026-04-28 04:22 | 33.51259 | -86.78474 | 1456 ft | 120 kts | 216° |
| 2026-04-28 04:22 | 33.50641 | -86.79087 | 1531 ft | 112 kts | 200° |
| 2026-04-28 04:22 | 33.50113 | -86.79783 | 1691 ft | 110 kts | 221° |
| 2026-04-28 04:23 | 33.49753 | -86.80619 | 1745 ft | 118 kts | 227° |
| 2026-04-28 04:23 | 33.49272 | -86.81432 | 1642 ft | 118 kts | 211° |
| 2026-04-28 04:23 | 33.48595 | -86.81933 | 1624 ft | 110 kts | 202° |
| 2026-04-28 04:23 | 33.47909 | -86.82266 | 1611 ft | 103 kts | 195° |
| 2026-04-28 04:24 | 33.47236 | -86.82506 | 1706 ft | 97 kts | 187° |
| 2026-04-28 04:24 | 33.46588 | -86.82780 | 1747 ft | 99 kts | 195° |
| 2026-04-28 04:24 | 33.45935 | -86.83051 | 1731 ft | 102 kts | 191° |
| 2026-04-28 04:24 | 33.45316 | -86.83535 | 1647 ft | 110 kts | 204° |
| 2026-04-28 04:25 | 33.44650 | -86.83981 | 1626 ft | 107 kts | 198° |
| 2026-04-28 04:25 | 33.44027 | -86.84492 | 1601 ft | 110 kts | 205° |
| 2026-04-28 04:25 | 33.43339 | -86.84913 | 1570 ft | 113 kts | 203° |
| 2026-04-28 04:25 | 33.42621 | -86.85353 | 1532 ft | 121 kts | 201° |
| 2026-04-28 04:26 | 33.41887 | -86.85818 | 1530 ft | 120 kts | 206° |
| 2026-04-28 04:26 | 33.41186 | -86.86204 | 1552 ft | 108 kts | 194° |
| 2026-04-28 04:26 | 33.40505 | -86.86630 | 1570 ft | 114 kts | 205° |
| 2026-04-28 04:26 | 33.39794 | -86.87080 | 1446 ft | 121 kts | 202° |
| 2026-04-28 04:27 | 33.39059 | -86.87568 | 1434 ft | 118 kts | 199° |
| 2026-04-28 04:27 | 33.38341 | -86.87905 | 1618 ft | 104 kts | 192° |
| 2026-04-28 04:27 | 33.37715 | -86.88260 | 1700 ft | 102 kts | 201° |
| 2026-04-28 04:27 | 33.37076 | -86.88735 | 1544 ft | 121 kts | 217° |
| 2026-04-28 04:28 | 33.36420 | -86.89377 | 1361 ft | 120 kts | 206° |
| 2026-04-28 04:28 | 33.35718 | -86.89750 | 1642 ft | 102 kts | 192° |
| 2026-04-28 04:28 | 33.35150 | -86.90250 | 1751 ft | 107 kts | 209° |
| 2026-04-28 04:28 | 33.34554 | -86.90725 | 1827 ft | 100 kts | 198° |
| 2026-04-28 04:29 | 33.34047 | -86.91148 | 1763 ft | 81 kts | 208° |
| 2026-04-28 04:29 | 33.33590 | -86.91521 | 1552 ft | 82 kts | 205° |
| 2026-04-28 04:29 | 33.33110 | -86.91843 | 1427 ft | 73 kts | 207° |
| 2026-04-28 04:29 | 33.32638 | -86.92126 | 1193 ft | 75 kts | 201° |
| 2026-04-28 04:30 | 33.32165 | -86.92307 | 1065 ft | 65 kts | 188° |
| 2026-04-28 04:30 | 33.31810 | -86.92350 | 911 ft | 32 kts | 195° |
| 2026-04-28 04:30 | 33.31652 | -86.92376 | 825 ft | 16 kts | 193° |
| 2026-04-28 04:30 | 33.31502 | -86.92413 | 797 ft | 26 kts | 193° |
| 2026-04-28 04:31 | 33.31341 | -86.92443 | 733 ft | 15 kts | 194° |
| 2026-04-28 04:31 | 33.31278 | -86.92459 | 700 ft | 4 kts | 197° |
| 2026-04-28 04:31 | 33.31237 | -86.92466 | 717 ft | 5 kts | 194° |
| 2026-04-28 04:31 | 33.31229 | -86.92477 | 702 ft | 0 kts | 229° |